Time;durP1;ratioP1;P1;durP2;ratioP2;P2;SDS_P1;SDS_P2;PMS_P1;PMS_P2;Temp;Humidity;BMP_temperature;BMP_pressure;BME280_temperature;BME280_humidity;BME280_pressure;Samples;Min_cycle;Max_cycle;Signal;HPM_P1;HPM_P2
2022/11/27 00:00:33;;;;;;;35.47;16.77;;;7.10;99.90;;;;;;5017546;28;20211;-41
2022/11/27 00:03:00;;;;;;;37.70;17.90;;;7.00;99.90;;;;;;5019211;28;20211;-43
2022/11/27 00:05:27;;;;;;;36.70;15.70;;;6.90;99.90;;;;;;5006469;28;20219;-44
2022/11/27 00:07:54;;;;;;;45.90;16.90;;;6.90;99.90;;;;;;5022061;28;20196;-45
2022/11/27 00:10:21;;;;;;;45.07;17.87;;;6.90;99.90;;;;;;5014434;28;20250;-42
2022/11/27 00:12:47;;;;;;;42.13;18.83;;;6.80;99.90;;;;;;5022645;28;20206;-43
2022/11/27 00:15:14;;;;;;;44.10;17.97;;;6.80;99.90;;;;;;5022271;28;20250;-43
2022/11/27 00:17:43;;;;;;;41.27;16.77;;;6.70;99.90;;;;;;5015845;28;20665;-42
2022/11/27 00:20:10;;;;;;;36.20;17.73;;;6.70;99.90;;;;;;5002785;28;20244;-42
2022/11/27 00:22:37;;;;;;;35.10;16.60;;;6.70;99.90;;;;;;5023478;28;20207;-44
2022/11/27 00:25:04;;;;;;;33.33;16.17;;;6.70;99.90;;;;;;5019093;28;20192;-45
2022/11/27 00:27:31;;;;;;;46.63;18.20;;;6.60;99.90;;;;;;5009140;28;20216;-42
2022/11/27 00:29:58;;;;;;;36.47;15.97;;;6.60;99.90;;;;;;5011055;28;20223;-43
2022/11/27 00:32:25;;;;;;;34.27;15.83;;;6.60;99.90;;;;;;5013700;28;20196;-42
2022/11/27 00:34:53;;;;;;;30.77;15.17;;;6.50;99.90;;;;;;5012905;28;20710;-44
2022/11/27 00:37:20;;;;;;;35.80;15.57;;;6.50;99.90;;;;;;5016839;28;20222;-43
2022/11/27 00:39:47;;;;;;;40.03;15.23;;;6.50;99.90;;;;;;5022628;28;20562;-44
2022/11/27 00:42:14;;;;;;;35.23;16.10;;;6.50;99.90;;;;;;5013168;28;20208;-44
2022/11/27 00:44:41;;;;;;;34.43;16.10;;;6.40;99.90;;;;;;5023356;28;20195;-43
2022/11/27 00:47:08;;;;;;;39.20;16.47;;;6.40;99.90;;;;;;5005966;28;20232;-44
2022/11/27 00:49:36;;;;;;;24.93;13.37;;;6.40;99.90;;;;;;5023615;28;20220;-47
2022/11/27 00:52:04;;;;;;;27.97;14.23;;;6.40;99.90;;;;;;5000741;28;20212;-45
2022/11/27 00:54:32;;;;;;;33.40;14.63;;;6.40;99.90;;;;;;5023350;28;20207;-45
2022/11/27 00:56:58;;;;;;;30.30;14.27;;;6.40;99.90;;;;;;5020543;28;20273;-43
2022/11/27 00:59:26;;;;;;;30.60;14.17;;;6.30;99.90;;;;;;5010054;28;20208;-44
2022/11/27 01:01:53;;;;;;;31.73;14.27;;;6.20;99.90;;;;;;5020743;28;20253;-43
2022/11/27 01:04:20;;;;;;;27.63;14.53;;;6.20;99.90;;;;;;5014315;28;20204;-41
2022/11/27 01:06:47;;;;;;;31.30;13.63;;;6.20;99.90;;;;;;5004714;28;20231;-43
2022/11/27 01:09:16;;;;;;;32.97;15.00;;;6.10;99.90;;;;;;5020647;28;20245;-43
2022/11/27 01:11:43;;;;;;;29.40;13.17;;;6.10;99.90;;;;;;5023262;28;20200;-43
2022/11/27 01:14:14;;;;;;;29.70;13.63;;;6.10;99.90;;;;;;5010260;28;20207;-43
2022/11/27 01:16:41;;;;;;;30.33;13.33;;;6.10;99.90;;;;;;5023524;28;20274;-42
2022/11/27 01:19:09;;;;;;;24.77;13.33;;;6.10;99.90;;;;;;5011855;28;20207;-47
2022/11/27 01:21:36;;;;;;;28.43;12.57;;;6.10;99.90;;;;;;5005265;28;20211;-46
2022/11/27 01:24:05;;;;;;;33.13;13.80;;;6.00;99.90;;;;;;5018689;28;20202;-42
2022/11/27 01:26:33;;;;;;;26.97;12.87;;;5.90;99.90;;;;;;5016943;28;20219;-44
2022/11/27 01:29:00;;;;;;;25.13;12.23;;;6.00;99.90;;;;;;5007401;28;20246;-42
2022/11/27 01:31:29;;;;;;;27.93;12.50;;;5.90;99.90;;;;;;5018846;28;20243;-41
2022/11/27 01:33:58;;;;;;;25.67;12.30;;;5.90;99.90;;;;;;5015252;28;20278;-44
2022/11/27 01:36:25;;;;;;;27.40;11.83;;;5.90;99.90;;;;;;4997271;28;20297;-44
2022/11/27 01:38:53;;;;;;;28.50;12.23;;;5.90;99.90;;;;;;5020764;28;20200;-42
2022/11/27 01:41:21;;;;;;;26.37;11.83;;;5.80;99.90;;;;;;5020896;28;20192;-43
2022/11/27 01:43:54;;;;;;;29.37;12.20;;;5.80;99.90;;;;;;5021888;28;20207;-46
2022/11/27 01:46:35;;;;;;;31.67;11.40;;;5.80;99.90;;;;;;5013133;28;20321;-43
2022/11/27 01:49:20;;;;;;;29.43;11.63;;;5.80;99.90;;;;;;5019032;28;20207;-43
2022/11/27 01:51:53;;;;;;;26.50;10.97;;;5.70;99.90;;;;;;5008062;28;20228;-43
2022/11/27 01:54:22;;;;;;;19.60;10.30;;;5.70;99.90;;;;;;5015222;28;20319;-42
2022/11/27 01:56:54;;;;;;;23.80;10.77;;;5.70;99.90;;;;;;5016709;28;20580;-44
2022/11/27 01:59:24;;;;;;;30.67;12.00;;;5.60;99.90;;;;;;5022024;28;20207;-42
2022/11/27 02:01:51;;;;;;;26.17;11.67;;;5.60;99.90;;;;;;5015135;28;20199;-42
2022/11/27 02:04:19;;;;;;;25.63;11.70;;;5.50;99.90;;;;;;5021127;28;20203;-41
2022/11/27 02:06:46;;;;;;;22.77;11.13;;;5.50;99.90;;;;;;5009532;28;20232;-42
2022/11/27 02:09:13;;;;;;;21.53;11.10;;;5.50;99.90;;;;;;5006767;28;20200;-42
2022/11/27 02:11:48;;;;;;;23.03;10.90;;;5.50;99.90;;;;;;5020067;28;20228;-42
2022/11/27 02:14:22;;;;;;;18.83;9.40;;;5.60;99.90;;;;;;5023800;28;20196;-42
2022/11/27 02:16:59;;;;;;;16.90;9.73;;;5.50;99.90;;;;;;5018772;28;20227;-44
2022/11/27 02:19:38;;;;;;;21.07;10.10;;;5.50;99.90;;;;;;5025792;28;20196;-41
2022/11/27 02:22:15;;;;;;;13.60;9.37;;;5.40;99.90;;;;;;5014417;28;21085;-41
2022/11/27 02:24:56;;;;;;;19.70;10.10;;;5.40;99.90;;;;;;5005475;28;20203;-42
2022/11/27 02:28:02;;;;;;;16.03;9.03;;;5.30;99.90;;;;;;5020970;28;20250;-43
2022/11/27 02:30:36;;;;;;;23.83;9.70;;;5.20;99.90;;;;;;5025673;28;20584;-42
2022/11/27 02:33:09;;;;;;;17.93;9.83;;;5.20;99.90;;;;;;5015852;28;20203;-43
2022/11/27 02:35:42;;;;;;;19.07;9.37;;;5.20;99.90;;;;;;5021087;28;20584;-44
2022/11/27 02:38:13;;;;;;;19.30;10.87;;;5.20;99.90;;;;;;5014818;28;20204;-41
2022/11/27 02:40:49;;;;;;;17.33;9.97;;;5.20;99.90;;;;;;5007853;28;20200;-41
2022/11/27 02:43:20;;;;;;;15.43;8.90;;;5.20;99.90;;;;;;5016973;28;20192;-42
2022/11/27 02:45:51;;;;;;;18.57;9.03;;;5.20;99.90;;;;;;5025321;28;20220;-44
2022/11/27 02:48:23;;;;;;;14.67;8.80;;;5.10;99.90;;;;;;5017969;28;20731;-42
2022/11/27 02:50:51;;;;;;;22.43;10.33;;;5.00;99.90;;;;;;5023391;28;20221;-46
2022/11/27 02:53:21;;;;;;;16.87;9.23;;;5.00;99.90;;;;;;5008262;28;20211;-42
2022/11/27 02:55:51;;;;;;;15.93;9.40;;;5.00;99.90;;;;;;4999920;28;20937;-42
2022/11/27 02:58:23;;;;;;;16.93;9.53;;;5.10;99.90;;;;;;5014823;28;20211;-42
2022/11/27 03:00:53;;;;;;;18.27;8.97;;;5.00;99.90;;;;;;5014138;28;20199;-43
2022/11/27 03:03:26;;;;;;;20.43;8.87;;;5.10;99.90;;;;;;5014012;28;20208;-42
2022/11/27 03:05:58;;;;;;;17.40;9.43;;;5.10;99.90;;;;;;5019384;28;20208;-43
2022/11/27 03:08:32;;;;;;;18.70;9.60;;;5.00;99.90;;;;;;5014263;28;20196;-44
2022/11/27 03:11:04;;;;;;;18.30;9.30;;;5.00;99.90;;;;;;5005095;28;20212;-41
2022/11/27 03:13:34;;;;;;;19.30;9.37;;;5.00;99.90;;;;;;5019918;28;20193;-41
2022/11/27 03:16:10;;;;;;;23.93;8.90;;;4.90;99.90;;;;;;5025928;28;20223;-47
2022/11/27 03:18:41;;;;;;;19.20;8.97;;;4.90;99.90;;;;;;5012832;28;20206;-42
2022/11/27 03:21:21;;;;;;;18.77;8.80;;;4.90;99.90;;;;;;5019134;28;20199;-48
2022/11/27 03:23:48;;;;;;;18.83;8.40;;;4.80;99.90;;;;;;5008516;28;20207;-43
2022/11/27 03:26:16;;;;;;;16.20;8.10;;;4.80;99.90;;;;;;5006616;28;20278;-45
2022/11/27 03:28:44;;;;;;;17.43;8.93;;;4.80;99.90;;;;;;5020817;28;20215;-42
2022/11/27 03:31:13;;;;;;;12.33;7.60;;;4.80;99.90;;;;;;5018648;28;20300;-43
2022/11/27 03:33:41;;;;;;;18.67;8.27;;;4.80;99.90;;;;;;5010871;28;20192;-42
2022/11/27 03:36:13;;;;;;;27.90;8.37;;;4.70;99.90;;;;;;5018104;28;20261;-42
2022/11/27 03:38:40;;;;;;;20.17;8.53;;;4.70;99.90;;;;;;5008749;28;20211;-41
2022/11/27 03:41:12;;;;;;;18.67;8.10;;;4.70;99.90;;;;;;5023748;28;20196;-42
2022/11/27 03:43:43;;;;;;;15.27;8.73;;;4.70;99.90;;;;;;5003120;28;20199;-42
2022/11/27 03:46:22;;;;;;;23.27;8.37;;;4.70;99.90;;;;;;5025039;28;20227;-42
2022/11/27 03:48:58;;;;;;;17.63;8.20;;;4.70;99.90;;;;;;5014297;28;20212;-41
2022/11/27 03:51:36;;;;;;;18.23;8.50;;;4.60;99.90;;;;;;5016613;28;20227;-44
2022/11/27 03:54:10;;;;;;;18.70;8.17;;;4.60;99.90;;;;;;5024848;28;20208;-41
2022/11/27 03:56:41;;;;;;;14.27;8.47;;;4.60;99.90;;;;;;5012954;28;20223;-42
2022/11/27 03:59:13;;;;;;;22.67;8.43;;;4.60;99.90;;;;;;5001663;28;20212;-43
2022/11/27 04:01:42;;;;;;;15.60;8.73;;;4.60;99.90;;;;;;5015933;28;20190;-42
2022/11/27 04:04:09;;;;;;;20.20;9.27;;;4.60;99.90;;;;;;5022466;28;20214;-44
2022/11/27 04:06:35;;;;;;;12.57;7.87;;;4.60;99.90;;;;;;5014558;28;20277;-41
2022/11/27 04:09:02;;;;;;;13.27;8.13;;;4.60;99.90;;;;;;5024906;28;20572;-43
2022/11/27 04:11:29;;;;;;;24.73;9.60;;;4.60;99.90;;;;;;5013628;28;20580;-42
2022/11/27 04:13:56;;;;;;;23.83;9.47;;;4.60;99.90;;;;;;5006048;28;20218;-44
2022/11/27 04:16:23;;;;;;;20.90;9.10;;;4.60;99.90;;;;;;5022616;28;20718;-44
2022/11/27 04:18:51;;;;;;;23.80;8.90;;;4.60;99.90;;;;;;5022530;28;20196;-41
2022/11/27 04:21:18;;;;;;;25.03;8.97;;;4.60;99.90;;;;;;5015208;28;20534;-43
2022/11/27 04:23:45;;;;;;;19.73;9.43;;;4.60;99.90;;;;;;5021455;28;20540;-41
2022/11/27 04:26:12;;;;;;;15.30;8.80;;;4.60;99.90;;;;;;5024422;28;20223;-43
2022/11/27 04:28:39;;;;;;;17.40;9.27;;;4.50;99.90;;;;;;4994663;28;20895;-42
2022/11/27 04:31:05;;;;;;;14.77;8.70;;;4.50;99.90;;;;;;5017024;28;20266;-41
2022/11/27 04:33:32;;;;;;;22.07;9.37;;;4.50;99.90;;;;;;5012973;28;20622;-42
2022/11/27 04:36:00;;;;;;;14.37;9.40;;;4.50;99.90;;;;;;5016442;28;20223;-44
2022/11/27 04:38:27;;;;;;;21.13;8.80;;;4.50;99.90;;;;;;5018619;28;20204;-45
2022/11/27 04:40:54;;;;;;;16.37;9.10;;;4.50;99.90;;;;;;5018858;28;20207;-42
2022/11/27 04:43:21;;;;;;;18.03;9.27;;;4.50;99.90;;;;;;5013004;28;20208;-43
2022/11/27 04:45:48;;;;;;;17.70;9.50;;;4.40;99.90;;;;;;5003485;28;20239;-41
2022/11/27 04:48:15;;;;;;;19.10;9.80;;;4.40;99.90;;;;;;5016654;28;20204;-43
2022/11/27 04:50:41;;;;;;;26.70;9.80;;;4.40;99.90;;;;;;5020171;28;20216;-41
2022/11/27 04:53:09;;;;;;;18.20;9.13;;;4.40;99.90;;;;;;5013453;28;20266;-43
2022/11/27 04:55:37;;;;;;;26.40;11.27;;;4.40;99.90;;;;;;5019540;28;20307;-42
2022/11/27 04:58:04;;;;;;;27.40;11.40;;;4.40;99.90;;;;;;5015707;28;20257;-42
2022/11/27 05:00:31;;;;;;;23.17;10.67;;;4.40;99.90;;;;;;5006345;28;20206;-42
2022/11/27 05:02:58;;;;;;;25.40;11.83;;;4.40;99.90;;;;;;5020855;28;20281;-42
2022/11/27 05:05:25;;;;;;;24.90;11.60;;;4.40;99.90;;;;;;5021031;28;20215;-43
2022/11/27 05:07:51;;;;;;;30.50;12.50;;;4.50;99.90;;;;;;5015119;28;20196;-44
2022/11/27 05:10:19;;;;;;;27.40;12.73;;;4.50;99.90;;;;;;5021264;28;20214;-42
2022/11/27 05:12:46;;;;;;;23.63;11.83;;;4.50;99.90;;;;;;5012547;28;20224;-43
2022/11/27 05:15:13;;;;;;;23.00;12.40;;;4.50;99.90;;;;;;5023117;28;20742;-43
2022/11/27 05:17:40;;;;;;;21.63;12.23;;;4.50;99.90;;;;;;5002298;28;20219;-42
2022/11/27 05:20:08;;;;;;;26.30;12.50;;;4.50;99.90;;;;;;5022780;28;20196;-41
2022/11/27 05:22:35;;;;;;;24.97;13.77;;;4.50;99.90;;;;;;5006891;28;20201;-42
2022/11/27 05:25:02;;;;;;;27.30;13.37;;;4.60;99.90;;;;;;5023276;28;20289;-41
2022/11/27 05:27:30;;;;;;;31.43;13.23;;;4.50;99.90;;;;;;5013895;28;20231;-46
2022/11/27 05:29:57;;;;;;;27.60;13.83;;;4.50;99.90;;;;;;5020717;28;20691;-41
2022/11/27 05:32:24;;;;;;;27.63;13.47;;;4.50;99.90;;;;;;5004180;28;20219;-44
2022/11/27 05:34:50;;;;;;;26.83;13.87;;;4.50;99.90;;;;;;5019040;28;20192;-41
2022/11/27 05:37:17;;;;;;;27.47;13.33;;;4.50;99.90;;;;;;5022628;28;20732;-41
2022/11/27 05:39:44;;;;;;;26.67;13.27;;;4.50;99.90;;;;;;5011533;28;20196;-43
2022/11/27 05:42:11;;;;;;;24.90;14.53;;;4.50;99.90;;;;;;5022465;28;20202;-44
2022/11/27 05:44:39;;;;;;;35.30;14.53;;;4.50;99.90;;;;;;5011020;28;20975;-41
2022/11/27 05:47:06;;;;;;;31.07;15.03;;;4.40;99.90;;;;;;5002690;28;20720;-42
2022/11/27 05:49:34;;;;;;;27.87;14.37;;;4.40;99.90;;;;;;5018426;28;20629;-46
2022/11/27 05:52:01;;;;;;;27.83;14.57;;;4.40;99.90;;;;;;5022371;28;20224;-42
2022/11/27 05:54:28;;;;;;;29.10;14.43;;;4.40;99.90;;;;;;5007934;28;20742;-43
2022/11/27 05:56:55;;;;;;;29.57;15.33;;;4.40;99.90;;;;;;5021938;28;20223;-43
2022/11/27 05:59:22;;;;;;;25.73;14.37;;;4.30;99.90;;;;;;5018093;28;20218;-41
2022/11/27 06:01:51;;;;;;;30.63;15.30;;;4.30;99.90;;;;;;4997833;28;20207;-45
2022/11/27 06:04:18;;;;;;;28.90;15.40;;;4.30;99.90;;;;;;5021921;28;20206;-43
2022/11/27 06:06:44;;;;;;;29.27;16.57;;;4.30;99.90;;;;;;5019585;28;20812;-43
2022/11/27 06:09:12;;;;;;;28.33;15.73;;;4.30;99.90;;;;;;5016567;28;20211;-42
2022/11/27 06:11:39;;;;;;;29.30;16.37;;;4.20;99.90;;;;;;5018780;28;20223;-42
2022/11/27 06:14:07;;;;;;;32.07;15.77;;;4.30;99.90;;;;;;5022268;28;20203;-43
2022/11/27 06:16:34;;;;;;;30.20;16.57;;;4.30;99.90;;;;;;4993671;28;20701;-45
2022/11/27 06:19:03;;;;;;;29.87;16.03;;;4.30;99.90;;;;;;5018249;28;20200;-41
2022/11/27 06:21:30;;;;;;;27.43;15.53;;;4.30;99.90;;;;;;5019502;28;20279;-44
2022/11/27 06:23:57;;;;;;;35.13;16.70;;;4.30;99.90;;;;;;5021472;28;20196;-44
2022/11/27 06:26:26;;;;;;;29.60;14.73;;;4.20;99.90;;;;;;5009079;28;20688;-44
2022/11/27 06:28:54;;;;;;;31.43;15.23;;;4.30;99.90;;;;;;5019991;28;20303;-42
2022/11/27 06:31:24;;;;;;;28.77;15.97;;;4.20;99.90;;;;;;5016276;28;20281;-43
2022/11/27 06:33:53;;;;;;;32.70;16.57;;;4.20;99.90;;;;;;4999328;28;20240;-42
2022/11/27 06:36:23;;;;;;;29.03;15.00;;;4.20;99.90;;;;;;5021348;28;20226;-44
2022/11/27 06:38:50;;;;;;;26.67;15.17;;;4.20;99.90;;;;;;5015409;28;20250;-42
2022/11/27 06:41:18;;;;;;;33.63;14.87;;;4.20;99.90;;;;;;5012110;28;20203;-43
2022/11/27 06:43:45;;;;;;;24.57;14.57;;;4.20;99.90;;;;;;5018173;28;20215;-44
2022/11/27 06:46:14;;;;;;;29.07;16.70;;;4.20;99.90;;;;;;5008930;28;20239;-43
2022/11/27 06:48:42;;;;;;;25.37;14.97;;;4.10;99.90;;;;;;4995639;28;20287;-47
2022/11/27 06:51:12;;;;;;;29.57;15.13;;;4.10;99.90;;;;;;5012595;28;20296;-44
2022/11/27 06:53:41;;;;;;;33.20;14.83;;;4.10;99.90;;;;;;5016727;28;20211;-43
2022/11/27 06:56:09;;;;;;;21.77;14.67;;;4.00;99.90;;;;;;5010202;28;20231;-42
2022/11/27 06:58:37;;;;;;;25.87;14.67;;;4.00;99.90;;;;;;5020044;28;20200;-45
2022/11/27 07:01:06;;;;;;;29.17;13.93;;;4.00;99.90;;;;;;5008798;28;20294;-41
2022/11/27 07:03:33;;;;;;;27.47;14.77;;;4.00;99.90;;;;;;4998555;28;20207;-44
2022/11/27 07:06:01;;;;;;;26.93;14.47;;;3.90;99.90;;;;;;5016669;28;20227;-45
2022/11/27 07:08:28;;;;;;;27.20;13.93;;;3.90;99.90;;;;;;5013856;28;20204;-46
2022/11/27 07:11:01;;;;;;;29.47;14.17;;;3.90;99.90;;;;;;5020000;28;20210;-43
2022/11/27 07:13:29;;;;;;;29.87;15.17;;;3.80;99.90;;;;;;5010548;28;20235;-47
2022/11/27 07:15:59;;;;;;;25.80;14.20;;;3.90;99.90;;;;;;5017240;28;20216;-42
2022/11/27 07:18:26;;;;;;;27.00;15.83;;;3.80;99.90;;;;;;5002699;28;21404;-41
2022/11/27 07:20:53;;;;;;;24.40;13.97;;;3.80;99.90;;;;;;5002444;28;20743;-42
2022/11/27 07:23:19;;;;;;;24.47;14.17;;;3.80;99.90;;;;;;5004428;28;20200;-42
2022/11/27 07:25:46;;;;;;;26.07;14.13;;;3.80;99.90;;;;;;5014382;28;20228;-42
2022/11/27 07:28:14;;;;;;;25.00;13.70;;;3.80;99.90;;;;;;5009486;28;20196;-44
2022/11/27 07:30:41;;;;;;;24.40;13.20;;;3.70;99.90;;;;;;5020302;28;20200;-44
2022/11/27 07:33:08;;;;;;;20.57;12.90;;;3.70;99.90;;;;;;5004810;28;20217;-43
2022/11/27 07:35:36;;;;;;;23.63;13.67;;;3.70;99.90;;;;;;5001523;28;20572;-48
2022/11/27 07:38:03;;;;;;;24.93;14.70;;;3.70;99.90;;;;;;5011872;28;20289;-44
2022/11/27 07:40:29;;;;;;;25.30;13.77;;;3.70;99.90;;;;;;5015034;28;20215;-41
2022/11/27 07:42:58;;;;;;;19.13;12.80;;;3.70;99.90;;;;;;5019376;28;20188;-42
2022/11/27 07:45:27;;;;;;;22.07;13.27;;;3.70;99.90;;;;;;5015150;28;20994;-42
2022/11/27 07:47:54;;;;;;;23.60;13.53;;;3.70;99.90;;;;;;5020718;28;20207;-42
2022/11/27 07:50:20;;;;;;;25.50;12.43;;;3.70;99.90;;;;;;4996059;28;20926;-43
2022/11/27 07:52:47;;;;;;;24.53;13.20;;;3.70;99.90;;;;;;5018534;28;20225;-43
2022/11/27 07:55:14;;;;;;;23.67;13.60;;;3.70;99.90;;;;;;4999254;28;20208;-45
2022/11/27 07:57:42;;;;;;;22.90;12.90;;;3.70;99.90;;;;;;5014416;28;20239;-47
2022/11/27 08:00:10;;;;;;;25.37;13.37;;;3.80;99.90;;;;;;5007801;28;20215;-41
2022/11/27 08:02:38;;;;;;;20.57;12.07;;;3.80;99.90;;;;;;5020444;28;20219;-41
2022/11/27 08:05:06;;;;;;;19.33;12.47;;;3.80;99.90;;;;;;5000011;28;20738;-43
2022/11/27 08:07:33;;;;;;;25.13;13.10;;;3.80;99.90;;;;;;5009697;28;20223;-42
2022/11/27 08:10:00;;;;;;;25.00;12.67;;;3.80;99.90;;;;;;5012772;28;20219;-43
2022/11/27 08:12:27;;;;;;;22.70;12.93;;;3.80;99.90;;;;;;4999046;28;20224;-42
2022/11/27 08:14:53;;;;;;;28.17;14.40;;;3.90;99.90;;;;;;5018880;28;20215;-42
2022/11/27 08:17:21;;;;;;;22.97;13.50;;;3.90;99.90;;;;;;5011226;28;20216;-43
2022/11/27 08:19:49;;;;;;;23.03;12.83;;;4.00;99.90;;;;;;5013610;28;20200;-46
2022/11/27 08:22:19;;;;;;;28.10;12.60;;;4.10;99.90;;;;;;4998701;28;20212;-45
2022/11/27 08:24:46;;;;;;;26.13;13.53;;;4.10;99.90;;;;;;5024076;28;20204;-43
2022/11/27 08:27:14;;;;;;;19.03;12.00;;;4.20;99.90;;;;;;5004605;28;20328;-42
2022/11/27 08:29:41;;;;;;;27.53;14.37;;;4.20;99.90;;;;;;5014104;28;20607;-41
2022/11/27 08:32:07;;;;;;;24.77;13.07;;;4.20;99.90;;;;;;5013185;28;20223;-46
2022/11/27 08:34:35;;;;;;;18.70;11.57;;;4.30;99.90;;;;;;5020239;28;20200;-41
2022/11/27 08:37:04;;;;;;;23.20;12.03;;;4.40;99.90;;;;;;4996795;28;20219;-44
2022/11/27 08:39:30;;;;;;;20.03;11.30;;;4.40;99.90;;;;;;5022601;28;20718;-41
2022/11/27 08:41:58;;;;;;;22.10;12.50;;;4.50;99.90;;;;;;5008644;28;20223;-46
2022/11/27 08:44:24;;;;;;;20.50;11.77;;;4.50;99.90;;;;;;5012566;28;20211;-48
2022/11/27 08:46:51;;;;;;;18.93;11.33;;;4.50;99.90;;;;;;5022181;28;20216;-41
2022/11/27 08:49:18;;;;;;;21.47;11.20;;;4.50;99.90;;;;;;5009452;28;20196;-41
2022/11/27 08:51:45;;;;;;;20.17;11.83;;;4.50;99.90;;;;;;5013175;28;20204;-41
2022/11/27 08:54:13;;;;;;;19.77;11.23;;;4.50;99.90;;;;;;5005596;28;20203;-42
2022/11/27 08:56:40;;;;;;;23.00;12.57;;;4.50;99.90;;;;;;5012589;28;20448;-44
2022/11/27 08:59:07;;;;;;;22.80;11.20;;;4.60;99.90;;;;;;5007366;28;20210;-42
2022/11/27 09:01:34;;;;;;;17.43;10.10;;;4.60;99.90;;;;;;5018206;28;20200;-42
2022/11/27 09:04:01;;;;;;;15.37;10.10;;;4.50;99.90;;;;;;5018540;28;20625;-47
2022/11/27 09:06:31;;;;;;;17.07;9.90;;;4.50;99.90;;;;;;5006095;28;20227;-43
2022/11/27 09:08:59;;;;;;;17.17;10.33;;;4.60;99.90;;;;;;4991453;28;20212;-46
2022/11/27 09:11:29;;;;;;;15.90;9.60;;;4.60;99.90;;;;;;5015075;28;20196;-45
2022/11/27 09:13:56;;;;;;;18.63;9.83;;;4.60;99.90;;;;;;4998376;28;20208;-42
2022/11/27 09:16:24;;;;;;;18.80;10.27;;;4.60;99.90;;;;;;5014662;28;20727;-42
2022/11/27 09:18:52;;;;;;;13.50;9.70;;;4.70;99.90;;;;;;5010658;28;20207;-43
2022/11/27 09:21:21;;;;;;;20.50;10.47;;;4.80;99.90;;;;;;5018430;28;20942;-43
2022/11/27 09:23:52;;;;;;;16.80;9.40;;;4.80;99.90;;;;;;4993768;28;20200;-45
2022/11/27 09:26:19;;;;;;;15.73;10.00;;;4.90;99.90;;;;;;5014578;28;20938;-44
2022/11/27 09:28:48;;;;;;;17.47;9.93;;;4.90;99.90;;;;;;5004396;28;20215;-45
2022/11/27 09:31:15;;;;;;;21.33;9.73;;;4.90;99.90;;;;;;5019052;28;20408;-48
2022/11/27 09:33:43;;;;;;;16.67;9.60;;;4.90;99.90;;;;;;5021871;28;20218;-41
2022/11/27 09:36:11;;;;;;;14.27;8.33;;;4.90;99.90;;;;;;5019027;28;20262;-44
2022/11/27 09:38:38;;;;;;;18.27;8.63;;;4.90;99.90;;;;;;4991707;28;20204;-43
2022/11/27 09:41:23;;;;;;;14.27;8.50;;;4.80;99.90;;;;;;5010208;28;20211;-46
2022/11/27 09:43:56;;;;;;;15.03;8.43;;;4.90;99.90;;;;;;5005691;28;20207;-42
2022/11/27 09:46:28;;;;;;;12.20;8.17;;;4.80;99.90;;;;;;5011519;28;20223;-42
2022/11/27 09:49:00;;;;;;;16.97;9.20;;;4.90;99.90;;;;;;5018431;28;20204;-43
2022/11/27 09:51:32;;;;;;;17.00;9.17;;;4.90;99.90;;;;;;5015725;28;20214;-42
2022/11/27 09:54:06;;;;;;;18.27;8.77;;;5.00;99.90;;;;;;4994597;28;20247;-42
2022/11/27 09:56:36;;;;;;;19.10;9.63;;;5.10;99.90;;;;;;5011094;28;20228;-43
2022/11/27 09:59:14;;;;;;;16.13;8.50;;;5.10;99.90;;;;;;5003579;28;20320;-41
2022/11/27 10:01:41;;;;;;;14.60;7.93;;;5.20;99.90;;;;;;5004392;28;20243;-45
2022/11/27 10:04:10;;;;;;;16.13;8.37;;;5.20;99.90;;;;;;5014345;28;20191;-43
2022/11/27 10:06:46;;;;;;;14.23;8.17;;;5.20;99.90;;;;;;5019156;28;20224;-45
2022/11/27 10:09:22;;;;;;;15.00;8.10;;;5.20;99.90;;;;;;4992134;28;20301;-45
2022/11/27 10:12:00;;;;;;;10.20;7.87;;;5.30;99.90;;;;;;5005875;28;20524;-42
2022/11/27 10:14:39;;;;;;;10.33;7.57;;;5.20;99.90;;;;;;5009142;28;20278;-43
2022/11/27 10:17:12;;;;;;;14.20;8.23;;;5.30;99.90;;;;;;5002048;28;20216;-42
2022/11/27 10:19:48;;;;;;;12.53;7.93;;;5.30;99.90;;;;;;5012143;28;20291;-44
2022/11/27 10:22:21;;;;;;;12.80;8.83;;;5.30;99.90;;;;;;5018753;28;20214;-47
2022/11/27 10:25:01;;;;;;;14.53;8.33;;;5.30;99.90;;;;;;4993560;28;21099;-44
2022/11/27 10:27:34;;;;;;;11.23;8.10;;;5.30;99.90;;;;;;5010674;28;20224;-44
2022/11/27 10:30:12;;;;;;;13.00;8.20;;;5.30;99.90;;;;;;5009005;28;20207;-46
2022/11/27 10:32:40;;;;;;;12.47;7.83;;;5.40;99.90;;;;;;5008201;28;21248;-44
2022/11/27 10:35:13;;;;;;;14.30;8.90;;;5.40;99.90;;;;;;5019925;28;20278;-43
2022/11/27 10:37:43;;;;;;;10.00;7.50;;;5.40;99.90;;;;;;5019603;28;20218;-46
2022/11/27 10:40:27;;;;;;;14.67;8.27;;;5.40;99.90;;;;;;5003911;28;20208;-45
2022/11/27 10:42:59;;;;;;;12.00;7.57;;;5.50;99.90;;;;;;5016354;28;20276;-45
2022/11/27 10:45:38;;;;;;;13.77;8.30;;;5.50;99.90;;;;;;5010382;28;20209;-44
2022/11/27 10:48:05;;;;;;;15.13;8.17;;;5.60;99.90;;;;;;5021637;28;20258;-45
2022/11/27 10:50:32;;;;;;;18.50;9.10;;;5.60;99.90;;;;;;5003571;28;20205;-45
2022/11/27 10:53:02;;;;;;;14.50;8.47;;;5.60;99.90;;;;;;5018053;28;20204;-44
2022/11/27 10:55:39;;;;;;;13.20;8.67;;;5.70;99.90;;;;;;4999661;28;20727;-43
2022/11/27 10:58:13;;;;;;;11.97;7.73;;;5.70;99.90;;;;;;5018175;28;20571;-43
2022/11/27 11:00:42;;;;;;;13.63;8.00;;;5.70;99.90;;;;;;5009064;28;20196;-45
2022/11/27 11:03:17;;;;;;;16.43;9.43;;;5.80;99.90;;;;;;5015464;28;20192;-45
2022/11/27 11:05:57;;;;;;;14.90;9.33;;;5.80;99.90;;;;;;5018713;28;20215;-44
2022/11/27 11:08:25;;;;;;;11.50;8.40;;;5.90;99.90;;;;;;5018764;28;20227;-42
2022/11/27 11:10:54;;;;;;;11.23;7.93;;;5.90;99.90;;;;;;5019243;28;20672;-43
2022/11/27 11:13:26;;;;;;;12.53;8.60;;;6.00;99.90;;;;;;5000557;28;20726;-45
2022/11/27 11:15:57;;;;;;;13.83;8.13;;;5.90;99.90;;;;;;5008607;28;20278;-48
2022/11/27 11:18:26;;;;;;;17.17;8.83;;;5.90;99.90;;;;;;5016332;28;20259;-45
2022/11/27 11:20:56;;;;;;;12.80;8.37;;;6.00;99.90;;;;;;5016493;28;20192;-44
2022/11/27 11:23:29;;;;;;;11.67;8.20;;;6.00;99.90;;;;;;5015057;28;20192;-47
2022/11/27 11:26:00;;;;;;;12.13;7.63;;;5.90;99.90;;;;;;5019745;28;20224;-45
2022/11/27 11:28:27;;;;;;;12.83;7.80;;;6.00;99.90;;;;;;5001333;28;20207;-46
2022/11/27 11:31:03;;;;;;;13.70;7.83;;;6.00;99.90;;;;;;5009907;28;20208;-44
2022/11/27 11:33:37;;;;;;;16.73;8.20;;;6.00;99.90;;;;;;5017310;28;20222;-45
2022/11/27 11:36:10;;;;;;;10.50;7.50;;;6.00;99.90;;;;;;5015950;28;20223;-45
2022/11/27 11:38:38;;;;;;;10.73;7.77;;;6.00;99.90;;;;;;5004202;28;20193;-43
2022/11/27 11:41:06;;;;;;;15.37;7.87;;;6.00;99.90;;;;;;5013148;28;20251;-44
2022/11/27 11:43:35;;;;;;;12.70;7.47;;;6.00;99.90;;;;;;5000166;28;20270;-44
2022/11/27 11:46:17;;;;;;;14.80;8.00;;;6.00;99.90;;;;;;5011797;28;20235;-45
2022/11/27 11:48:54;;;;;;;11.97;7.73;;;6.10;99.90;;;;;;5020173;28;20373;-45
2022/11/27 11:51:47;;;;;;;14.53;8.07;;;6.10;99.90;;;;;;5019992;28;20200;-47
2022/11/27 11:54:34;;;;;;;13.00;8.33;;;6.10;99.90;;;;;;5019183;28;20230;-41
2022/11/27 11:57:06;;;;;;;10.83;7.47;;;6.10;99.90;;;;;;5017864;28;20220;-45
2022/11/27 11:59:41;;;;;;;11.63;8.73;;;6.10;99.90;;;;;;4996784;28;20196;-44
2022/11/27 12:02:37;;;;;;;11.40;7.53;;;6.10;99.90;;;;;;5006545;28;20208;-42
2022/11/27 12:05:18;;;;;;;10.77;7.17;;;6.10;99.90;;;;;;5014728;28;20575;-43
2022/11/27 12:08:19;;;;;;;12.13;7.10;;;6.10;99.90;;;;;;5013169;28;20220;-47
2022/11/27 12:10:55;;;;;;;14.07;8.07;;;6.20;99.90;;;;;;5019936;28;20202;-45
2022/11/27 12:13:35;;;;;;;10.90;7.30;;;6.20;99.90;;;;;;5004290;28;20307;-47
2022/11/27 12:16:08;;;;;;;9.43;6.97;;;6.20;99.90;;;;;;5013750;28;20216;-43
2022/11/27 12:18:48;;;;;;;11.43;7.00;;;6.20;99.90;;;;;;5004771;28;20199;-42
2022/11/27 12:21:22;;;;;;;11.67;7.90;;;6.30;99.90;;;;;;5018943;28;20962;-47
2022/11/27 12:24:03;;;;;;;8.00;6.60;;;6.20;99.90;;;;;;5011199;28;20208;-44
2022/11/27 12:26:41;;;;;;;14.10;7.87;;;6.30;99.90;;;;;;5020081;28;20218;-44
2022/11/27 12:29:32;;;;;;;15.33;7.63;;;6.30;99.90;;;;;;5000340;28;20212;-43
2022/11/27 12:32:22;;;;;;;11.17;7.50;;;6.30;99.90;;;;;;5021658;28;20208;-45
2022/11/27 12:35:05;;;;;;;9.07;6.50;;;6.30;99.90;;;;;;5005684;28;20235;-42
2022/11/27 12:37:45;;;;;;;12.53;6.93;;;6.40;99.90;;;;;;5017502;28;20952;-43
2022/11/27 12:40:27;;;;;;;10.50;6.60;;;6.30;99.90;;;;;;5010791;28;20222;-44
2022/11/27 12:43:24;;;;;;;12.87;6.97;;;6.30;99.90;;;;;;5003013;28;20306;-46
2022/11/27 12:45:56;;;;;;;10.47;6.67;;;6.40;99.90;;;;;;5020838;28;20223;-46
2022/11/27 12:48:27;;;;;;;8.73;6.90;;;6.40;99.90;;;;;;5014412;28;20668;-47
2022/11/27 12:51:00;;;;;;;9.47;6.67;;;6.40;99.90;;;;;;5017300;28;20203;-43
2022/11/27 12:53:34;;;;;;;12.20;6.80;;;6.30;99.90;;;;;;5019660;28;20319;-44
2022/11/27 12:56:09;;;;;;;12.20;6.60;;;6.30;99.90;;;;;;5016074;28;20228;-44